Time;durP1;ratioP1;P1;durP2;ratioP2;P2;SDS_P1;SDS_P2;PMS_P1;PMS_P2;Temp;Humidity;BMP_temperature;BMP_pressure;BME280_temperature;BME280_humidity;BME280_pressure;Samples;Min_cycle;Max_cycle;Signal;HPM_P1;HPM_P2
2021/03/15 00:01:05;;;;;;;11.10;6.82;;;;;;;2.70;95.62;98656.94;6213793;23;20005;-75
2021/03/15 00:03:30;;;;;;;13.43;7.22;;;;;;;2.57;96.05;98642.31;6213661;23;20004;-75
2021/03/15 00:05:57;;;;;;;11.50;6.90;;;;;;;2.65;97.11;98638.13;6215668;23;20392;-75
2021/03/15 00:08:22;;;;;;;10.35;6.18;;;;;;;2.65;96.88;98638.13;6216199;23;20001;-75
2021/03/15 00:10:48;;;;;;;10.32;6.45;;;;;;;2.74;96.25;98643.34;6215825;23;20027;-75
2021/03/15 00:13:15;;;;;;;11.23;5.50;;;;;;;2.79;95.83;98651.94;6215664;23;19996;-74
2021/03/15 00:15:41;;;;;;;8.27;5.50;;;;;;;2.83;94.82;98645.16;6216122;23;20508;-76
2021/03/15 00:18:07;;;;;;;12.98;6.43;;;;;;;2.74;96.16;98648.47;6215600;23;20008;-75
2021/03/15 00:20:32;;;;;;;6.82;5.38;;;;;;;2.75;96.48;98639.94;6215907;23;20071;-76
2021/03/15 00:22:58;;;;;;;8.77;5.65;;;;;;;2.81;96.38;98641.72;6215854;23;19993;-75
2021/03/15 00:25:24;;;;;;;9.05;5.75;;;;;;;2.86;95.49;98646.91;6215970;23;20011;-75
2021/03/15 00:27:49;;;;;;;8.95;5.47;;;;;;;2.91;96.39;98635.00;6215787;23;20424;-75
2021/03/15 00:30:17;;;;;;;8.48;5.40;;;;;;;2.95;97.10;98636.72;6215604;23;20031;-75
2021/03/15 00:32:43;;;;;;;9.88;5.95;;;;;;;2.96;96.45;98638.47;6188745;23;20015;-75
2021/03/15 00:35:10;;;;;;;10.57;5.75;;;;;;;3.00;95.52;98642.78;6189202;23;20000;-75
2021/03/15 00:37:37;;;;;;;9.18;6.65;;;;;;;2.99;96.07;98644.47;6215740;23;20070;-75
2021/03/15 00:40:06;;;;;;;9.30;6.65;;;;;;;3.08;95.97;98644.53;6215569;23;20012;-76
2021/03/15 00:42:31;;;;;;;8.10;6.00;;;;;;;3.09;95.12;98637.72;6215465;23;20007;-76
2021/03/15 00:44:57;;;;;;;9.98;6.10;;;;;;;3.12;95.32;98640.31;6215537;23;20079;-75
2021/03/15 00:47:22;;;;;;;8.07;5.28;;;;;;;3.08;94.13;98643.69;6215561;23;20047;-75
2021/03/15 00:49:47;;;;;;;10.60;5.80;;;;;;;3.03;93.50;98635.13;6215605;23;20000;-75
2021/03/15 00:52:13;;;;;;;8.35;5.47;;;;;;;2.97;93.70;98630.81;6215398;23;20343;-75
2021/03/15 00:54:38;;;;;;;10.10;5.32;;;;;;;2.99;93.92;98628.25;6215521;23;20008;-76
2021/03/15 00:57:03;;;;;;;11.48;5.85;;;;;;;2.93;94.25;98633.31;6215553;23;20001;-76
2021/03/15 00:59:29;;;;;;;10.45;5.47;;;;;;;2.91;94.79;98627.34;6188717;23;20091;-75
2021/03/15 05:15:34;;;;;;;10.90;3.50;;;;;;;2.78;89.76;98373.09;6211707;22;20120;-72
2021/03/15 05:18:00;;;;;;;5.85;3.10;;;;;;;2.73;89.90;98370.50;6215232;23;20016;-72
2021/03/15 05:20:26;;;;;;;7.47;3.00;;;;;;;2.69;90.78;98371.31;6215106;23;20007;-72
2021/03/15 05:22:52;;;;;;;4.15;3.10;;;;;;;2.61;91.18;98370.44;6215056;23;19997;-73
2021/03/15 05:25:20;;;;;;;8.52;3.40;;;;;;;2.73;91.42;98369.66;6214198;23;20012;-73
2021/03/15 05:27:50;;;;;;;10.18;3.20;;;;;;;2.86;89.97;98360.34;6185507;23;20008;-73
2021/03/15 05:30:17;;;;;;;5.20;3.08;;;;;;;2.81;90.60;98358.63;6210829;22;20008;-70
2021/03/15 05:32:49;;;;;;;5.45;2.58;;;;;;;2.78;90.38;98358.59;6245385;23;19997;-70
2021/03/15 05:35:15;;;;;;;9.15;3.85;;;;;;;2.75;90.07;98356.00;6246001;23;20322;-76
2021/03/15 05:37:41;;;;;;;12.27;3.17;;;;;;;2.69;90.61;98350.84;6195662;23;20374;-75
2021/03/15 05:40:10;;;;;;;12.63;2.83;;;;;;;2.67;90.63;98350.00;6144460;23;20013;-72
2021/03/15 05:42:54;;;;;;;10.90;3.37;;;;;;;2.59;91.22;98356.75;6125992;23;20053;-71
2021/03/15 05:45:55;;;;;;;5.95;3.28;;;;;;;2.52;91.71;98355.03;6125983;23;20020;-71
2021/03/15 05:48:48;;;;;;;5.25;3.63;;;;;;;2.53;91.99;98357.56;6126025;23;20365;-71
2021/03/15 05:51:42;;;;;;;4.35;2.90;;;;;;;2.42;92.91;98338.75;6125664;23;20039;-71
2021/03/15 05:54:26;;;;;;;6.25;3.22;;;;;;;2.50;91.76;98336.22;6125907;23;20468;-71
2021/03/15 05:57:02;;;;;;;4.55;3.03;;;;;;;2.44;91.40;98341.31;6125834;23;20017;-71
2021/03/15 05:59:52;;;;;;;5.38;2.90;;;;;;;2.38;91.89;98331.06;6125893;23;20040;-73
2021/03/15 06:02:36;;;;;;;7.88;3.03;;;;;;;2.43;91.60;98324.28;6125449;23;20006;-72
2021/03/15 06:05:30;;;;;;;10.23;3.10;;;;;;;2.43;91.90;98324.28;6125878;23;20005;-72
2021/03/15 06:08:01;;;;;;;14.52;5.90;;;;;;;2.46;92.92;98314.91;6125582;23;20449;-72
2021/03/15 06:10:36;;;;;;;10.73;3.03;;;;;;;2.41;91.49;98310.59;6125640;23;20081;-72
2021/03/15 06:13:10;;;;;;;3.75;2.90;;;;;;;2.40;92.26;98308.91;6125693;23;20065;-73
2021/03/15 06:15:39;;;;;;;10.77;3.42;;;;;;;2.39;92.88;98314.88;6125507;23;20086;-72
2021/03/15 06:18:06;;;;;;;11.50;3.42;;;;;;;2.43;93.40;98308.94;6125666;23;20013;-72
2021/03/15 06:20:32;;;;;;;5.15;3.10;;;;;;;2.53;93.19;98300.47;6125719;23;20026;-72
2021/03/15 06:22:59;;;;;;;7.75;3.38;;;;;;;2.45;92.56;98302.13;6125355;23;20006;-71
2021/03/15 06:25:26;;;;;;;7.60;3.08;;;;;;;2.42;93.17;98302.97;6125969;23;20001;-71
2021/03/15 06:27:52;;;;;;;8.45;3.78;;;;;;;2.44;91.92;98292.75;6125594;23;20030;-71
2021/03/15 06:30:18;;;;;;;8.60;4.07;;;;;;;2.42;92.90;98284.19;6138117;23;20009;-72
2021/03/15 06:32:49;;;;;;;8.02;3.53;;;;;;;2.53;93.85;98275.75;6128570;23;20016;-71
2021/03/15 06:35:15;;;;;;;7.28;3.20;;;;;;;2.53;91.92;98280.88;6155114;23;20080;-72
2021/03/15 06:37:42;;;;;;;9.15;3.63;;;;;;;2.48;91.85;98276.56;6155123;23;20071;-72
2021/03/15 06:40:08;;;;;;;6.70;3.50;;;;;;;2.56;93.25;98274.91;6154850;23;20005;-71
2021/03/15 06:42:35;;;;;;;10.15;3.63;;;;;;;2.64;92.83;98273.25;6154544;23;20008;-72
2021/03/15 06:45:00;;;;;;;8.10;4.05;;;;;;;2.70;92.18;98273.28;6154851;23;20001;-72
2021/03/15 06:47:26;;;;;;;6.50;3.42;;;;;;;2.64;92.27;98273.25;6128623;23;20012;-71
2021/03/15 06:49:52;;;;;;;6.03;3.15;;;;;;;2.72;92.43;98258.81;6154734;23;20365;-71
2021/03/15 06:52:17;;;;;;;9.10;3.80;;;;;;;2.86;93.08;98263.13;6154377;23;20017;-72
2021/03/15 06:54:42;;;;;;;8.13;3.25;;;;;;;2.89;90.52;98252.91;6155134;23;20007;-72
2021/03/15 06:57:14;;;;;;;6.30;2.90;;;;;;;2.92;90.40;98252.91;6154639;23;20036;-72
2021/03/15 06:59:56;;;;;;;6.15;2.83;;;;;;;3.05;90.85;98247.00;6154945;23;20029;-72
2021/03/15 07:02:29;;;;;;;7.95;3.33;;;;;;;3.10;92.40;98258.09;6154255;23;20049;-71
2021/03/15 07:05:09;;;;;;;9.02;3.40;;;;;;;3.24;91.51;98256.44;6143825;23;20021;-72
2021/03/15 07:07:37;;;;;;;5.38;2.53;;;;;;;3.22;90.38;98247.88;6145741;23;20005;-72
2021/03/15 07:10:14;;;;;;;7.15;3.08;;;;;;;3.15;90.21;98251.31;6148962;23;20192;-72
2021/03/15 07:12:40;;;;;;;5.68;2.55;;;;;;;3.17;92.71;98247.03;6152779;23;20002;-72
2021/03/15 07:15:07;;;;;;;3.75;2.50;;;;;;;3.40;89.61;98246.25;6153612;23;20348;-72
2021/03/15 07:17:33;;;;;;;3.83;2.42;;;;;;;3.44;89.10;98247.97;6154338;23;20001;-73
2021/03/15 07:19:59;;;;;;;6.68;2.30;;;;;;;3.40;89.17;98256.47;6154263;23;20006;-72
2021/03/15 07:22:27;;;;;;;4.10;2.10;;;;;;;3.38;88.66;98253.03;6154503;23;20016;-72
2021/03/15 07:25:16;;;;;;;9.38;2.42;;;;;;;3.43;89.07;98251.34;6153102;23;20048;-72
2021/03/15 07:27:49;;;;;;;3.33;2.47;;;;;;;3.29;90.55;98257.31;6154622;23;20001;-71
2021/03/15 07:30:27;;;;;;;3.88;2.08;;;;;;;3.23;89.01;98259.84;6123744;23;20013;-71
2021/03/15 07:32:58;;;;;;;4.13;3.03;;;;;;;3.30;90.46;98251.34;6154156;23;20002;-72
2021/03/15 07:35:31;;;;;;;2.60;1.98;;;;;;;3.32;91.02;98254.75;6153866;23;20032;-71
2021/03/15 07:37:56;;;;;;;5.15;2.38;;;;;;;3.25;93.09;98247.91;6153761;23;20012;-72
2021/03/15 07:40:40;;;;;;;5.45;2.47;;;;;;;3.48;91.33;98249.66;6154173;23;20025;-72
2021/03/15 07:43:14;;;;;;;2.88;2.30;;;;;;;3.49;91.26;98252.22;6128404;23;20010;-72
2021/03/15 07:45:40;;;;;;;2.28;2.08;;;;;;;3.67;90.43;98251.38;6128214;23;20009;-72
2021/03/15 07:48:12;;;;;;;4.68;2.55;;;;;;;3.89;89.35;98253.97;6153325;23;20310;-71
2021/03/15 07:50:39;;;;;;;2.40;1.83;;;;;;;3.64;87.91;98251.41;6154676;23;20009;-72
2021/03/15 07:53:05;;;;;;;4.47;2.08;;;;;;;3.60;89.40;98254.81;6154198;23;20006;-71
2021/03/15 07:55:38;;;;;;;3.65;1.60;;;;;;;3.49;89.50;98261.63;6154418;23;19998;-72
2021/03/15 07:58:27;;;;;;;8.48;1.85;;;;;;;3.26;91.02;98270.09;6154395;23;20002;-71
2021/03/15 08:00:54;;;;;;;6.03;2.00;;;;;;;3.24;91.80;98261.56;6153424;23;20421;-72
2021/03/15 08:03:21;;;;;;;1.83;1.60;;;;;;;3.01;90.80;98266.59;6154318;23;20001;-71
2021/03/15 08:05:48;;;;;;;2.00;1.33;;;;;;;2.85;91.36;98267.38;6154984;23;20025;-72
2021/03/15 08:08:13;;;;;;;3.30;1.50;;;;;;;2.84;91.81;98265.66;6154173;23;20005;-72
2021/03/15 08:10:41;;;;;;;1.65;1.55;;;;;;;2.86;91.91;98274.22;6153340;23;20012;-72
2021/03/15 08:13:08;;;;;;;2.40;2.20;;;;;;;2.98;92.38;98278.53;6153590;23;20029;-72
2021/03/15 08:15:34;;;;;;;2.58;1.70;;;;;;;3.18;92.03;98271.75;6154282;23;20032;-72
2021/03/15 08:18:00;;;;;;;2.50;1.40;;;;;;;3.27;92.17;98271.78;6154205;23;20002;-72
2021/03/15 08:20:27;;;;;;;3.08;1.90;;;;;;;3.34;91.19;98273.53;6153887;23;20484;-72
2021/03/15 08:22:58;;;;;;;1.85;1.75;;;;;;;3.35;90.92;98269.28;6153191;23;20002;-72
2021/03/15 08:25:24;;;;;;;1.58;1.48;;;;;;;3.47;90.84;98268.44;6153697;23;20001;-73
2021/03/15 08:27:56;;;;;;;2.53;1.80;;;;;;;3.54;91.40;98265.03;6156100;23;20001;-73
2021/03/15 08:30:26;;;;;;;3.28;1.60;;;;;;;3.60;91.48;98271.03;6155688;23;20504;-71
2021/03/15 08:32:52;;;;;;;1.52;1.42;;;;;;;3.38;92.16;98263.28;6155870;23;20002;-72
2021/03/15 08:35:18;;;;;;;1.55;1.45;;;;;;;3.45;91.33;98260.75;6154638;23;20001;-71
2021/03/15 08:37:54;;;;;;;1.80;1.70;;;;;;;3.46;92.33;98266.72;6129900;23;20006;-71
2021/03/15 08:40:45;;;;;;;1.90;1.80;;;;;;;3.64;91.23;98269.31;6155768;23;20002;-70
2021/03/15 08:43:22;;;;;;;2.20;1.80;;;;;;;3.76;91.30;98271.88;6156031;23;20477;-71
2021/03/15 08:45:59;;;;;;;10.77;5.60;;;;;;;3.39;91.89;98276.13;6128808;23;20109;-70
2021/03/15 08:48:33;;;;;;;2.03;1.90;;;;;;;3.56;92.31;98263.31;6155669;23;20425;-71
2021/03/15 08:51:29;;;;;;;3.75;2.10;;;;;;;3.95;91.09;98256.53;6129189;23;20009;-71
2021/03/15 08:53:54;;;;;;;8.52;2.25;;;;;;;4.26;89.96;98265.06;6136260;23;20009;-72
2021/03/15 08:56:19;;;;;;;10.90;5.00;;;;;;;4.19;89.68;98266.75;6155210;23;20085;-72
2021/03/15 08:58:52;;;;;;;3.58;2.35;;;;;;;4.13;89.67;98256.53;6128325;23;20013;-70
2021/03/15 09:01:19;;;;;;;5.70;2.03;;;;;;;4.09;89.18;98265.06;6155581;23;20002;-70
2021/03/15 09:03:46;;;;;;;2.03;1.50;;;;;;;4.25;89.74;98266.75;6156158;23;20001;-71
2021/03/15 09:06:11;;;;;;;7.85;4.93;;;;;;;4.28;90.34;98269.31;6155789;23;20001;-71
2021/03/15 09:08:57;;;;;;;8.18;3.33;;;;;;;4.38;89.66;98268.44;6155309;23;20013;-71
2021/03/15 09:11:37;;;;;;;3.75;1.90;;;;;;;4.33;89.14;98267.59;6154879;23;20056;-72
2021/03/15 09:16:56;;;;;;;7.18;4.38;;;;;;;4.34;90.48;98271.88;6155796;23;20330;-71
2021/03/15 09:19:43;;;;;;;6.03;2.78;;;;;;;4.32;90.52;98271.03;6154086;23;20010;-72
2021/03/15 09:22:32;;;;;;;2.72;2.20;;;;;;;4.28;90.92;98274.44;6151660;23;20005;-72
2021/03/15 09:25:02;;;;;;;2.63;2.38;;;;;;;4.40;92.14;98271.03;6153503;23;20403;-71
2021/03/15 09:27:40;;;;;;;6.03;2.97;;;;;;;4.48;91.43;98268.44;6147928;23;20435;-71
2021/03/15 09:30:09;;;;;;;4.32;2.40;;;;;;;4.48;91.69;98273.56;6151179;23;20634;-71
2021/03/15 09:32:41;;;;;;;4.18;2.33;;;;;;;4.53;92.02;98266.72;6150176;23;20442;-71
2021/03/15 09:35:25;;;;;;;5.03;2.17;;;;;;;4.59;91.96;98271.81;6151012;23;20385;-72
2021/03/15 09:37:50;;;;;;;6.13;2.30;;;;;;;4.48;91.90;98271.84;6150826;23;20032;-72
2021/03/15 09:40:18;;;;;;;3.08;2.00;;;;;;;4.55;91.52;98270.16;6150884;23;20060;-72
2021/03/15 09:42:43;;;;;;;5.50;2.83;;;;;;;4.63;92.12;98278.66;6124845;23;20031;-71
2021/03/15 09:45:14;;;;;;;7.10;2.13;;;;;;;4.66;91.56;98270.97;6123686;23;20425;-70
2021/03/15 09:47:40;;;;;;;6.72;2.50;;;;;;;4.74;92.27;98276.94;6151140;23;20080;-73
2021/03/15 09:50:23;;;;;;;6.22;2.28;;;;;;;4.71;92.07;98271.81;6150192;23;20036;-74
2021/03/15 09:52:48;;;;;;;4.93;1.90;;;;;;;4.53;92.16;98276.97;6146234;23;20009;-73
2021/03/15 09:55:14;;;;;;;1.98;1.52;;;;;;;4.58;92.10;98275.25;6144016;23;20083;-73
2021/03/15 09:57:40;;;;;;;3.70;1.98;;;;;;;4.68;92.49;98271.78;6143375;23;20001;-74
2021/03/15 10:00:10;;;;;;;6.68;2.90;;;;;;;4.57;92.62;98281.25;6144475;23;20016;-73
2021/03/15 10:02:35;;;;;;;3.78;2.47;;;;;;;4.72;91.48;98278.63;6115452;23;20075;-73
2021/03/15 10:05:01;;;;;;;3.40;1.80;;;;;;;4.63;91.84;98268.38;6143597;23;20009;-73
2021/03/15 10:07:26;;;;;;;10.02;2.70;;;;;;;4.70;92.62;98280.38;6142040;23;20005;-74
2021/03/15 10:09:52;;;;;;;3.13;2.17;;;;;;;4.61;92.29;98280.38;6142324;23;20005;-73
2021/03/15 10:12:23;;;;;;;4.22;2.67;;;;;;;4.65;93.32;98271.81;6142671;23;20348;-73
2021/03/15 10:14:59;;;;;;;7.15;2.13;;;;;;;4.77;93.36;98276.91;6143576;23;20029;-73
2021/03/15 10:17:24;;;;;;;5.03;3.00;;;;;;;4.95;93.21;98275.16;6142975;23;20388;-73
2021/03/15 10:19:49;;;;;;;7.53;3.30;;;;;;;4.92;92.44;98277.72;6137610;23;20012;-72
2021/03/15 10:22:18;;;;;;;6.55;2.60;;;;;;;4.98;91.85;98275.13;6139135;23;20025;-72
2021/03/15 10:24:45;;;;;;;3.38;2.10;;;;;;;5.02;92.72;98271.69;6143363;23;20005;-71
2021/03/15 10:27:25;;;;;;;5.05;2.10;;;;;;;4.94;93.30;98264.03;6138275;23;20393;-71
2021/03/15 10:29:56;;;;;;;6.10;2.92;;;;;;;4.89;93.48;98269.19;6138539;23;20400;-72
2021/03/15 10:32:27;;;;;;;6.28;4.05;;;;;;;5.00;93.00;98269.13;6106445;23;20422;-72
2021/03/15 10:35:13;;;;;;;4.75;2.40;;;;;;;4.95;92.94;98276.00;6132463;23;20005;-72
2021/03/15 10:37:41;;;;;;;17.17;6.00;;;;;;;4.96;93.50;98281.97;6132758;23;20009;-72
2021/03/15 10:40:10;;;;;;;7.53;4.38;;;;;;;4.97;93.95;98278.56;6131842;23;20032;-71
2021/03/15 10:42:38;;;;;;;8.07;3.75;;;;;;;4.98;93.34;98280.25;6105063;23;20006;-71
2021/03/15 10:45:10;;;;;;;9.05;4.18;;;;;;;5.17;92.99;98266.47;6132831;23;20691;-71
2021/03/15 10:47:37;;;;;;;4.35;3.35;;;;;;;5.06;92.04;98273.38;6132771;23;20080;-71
2021/03/15 10:50:22;;;;;;;4.00;2.72;;;;;;;5.10;91.74;98277.66;6111484;23;20429;-72
2021/03/15 10:52:49;;;;;;;4.18;2.78;;;;;;;4.95;92.19;98286.28;6141623;23;20006;-73
2021/03/15 10:55:20;;;;;;;3.67;2.63;;;;;;;5.02;91.85;98276.81;6142078;23;20013;-72
2021/03/15 10:58:18;;;;;;;5.72;3.70;;;;;;;4.76;91.83;98280.34;6146743;23;20016;-72
2021/03/15 11:01:00;;;;;;;8.40;4.68;;;;;;;4.75;93.60;98288.91;6080241;23;20410;-73
2021/03/15 11:03:29;;;;;;;6.68;4.88;;;;;;;4.81;93.95;98294.00;6150349;23;20614;-73
2021/03/15 11:06:27;;;;;;;9.95;4.15;;;;;;;4.92;92.79;98293.13;6149310;23;20041;-73
2021/03/15 11:08:56;;;;;;;6.35;3.47;;;;;;;4.95;93.14;98290.56;6149054;23;20040;-73
2021/03/15 11:11:33;;;;;;;8.00;4.45;;;;;;;4.93;92.87;98302.53;6149916;23;20101;-73
2021/03/15 11:14:00;;;;;;;9.25;4.65;;;;;;;4.78;92.75;98303.41;6150144;23;20006;-73
2021/03/15 11:16:28;;;;;;;9.35;5.18;;;;;;;4.76;93.26;98300.88;6149937;23;20356;-72
2021/03/15 11:19:08;;;;;;;5.97;3.90;;;;;;;5.02;92.97;98302.50;6148998;23;20006;-70
2021/03/15 11:21:45;;;;;;;6.25;4.00;;;;;;;5.12;92.59;98297.31;6149540;23;20001;-71
2021/03/15 11:24:11;;;;;;;13.27;5.53;;;;;;;5.06;92.25;98304.19;6150048;23;19998;-70
2021/03/15 11:26:53;;;;;;;5.78;3.88;;;;;;;5.05;92.00;98303.34;6149702;23;20698;-71
2021/03/15 11:29:38;;;;;;;3.35;2.75;;;;;;;5.10;92.43;98303.31;6148912;23;20005;-70
2021/03/15 11:32:11;;;;;;;7.97;3.90;;;;;;;4.99;91.88;98312.78;6166118;23;20729;-73
2021/03/15 11:34:50;;;;;;;4.72;3.80;;;;;;;5.03;92.15;98315.34;6179557;23;20047;-74
2021/03/15 11:37:22;;;;;;;2.88;2.67;;;;;;;4.98;92.17;98311.06;6177279;23;20462;-73
2021/03/15 11:39:48;;;;;;;3.67;3.38;;;;;;;5.10;91.96;98314.44;6175363;23;20038;-73
2021/03/15 11:42:27;;;;;;;5.60;2.50;;;;;;;5.19;91.82;98317.84;6150531;23;20451;-74
2021/03/15 11:44:52;;;;;;;5.00;3.88;;;;;;;5.16;91.89;98316.13;6148652;23;20471;-74
2021/03/15 11:47:17;;;;;;;4.68;2.72;;;;;;;5.21;91.74;98314.41;6147311;23;20006;-74
2021/03/15 11:49:43;;;;;;;2.83;2.63;;;;;;;5.31;91.50;98316.06;6149634;23;20483;-71
2021/03/15 11:52:09;;;;;;;5.88;2.47;;;;;;;5.24;90.31;98314.41;6122419;23;20001;-68
2021/03/15 11:54:34;;;;;;;8.13;4.22;;;;;;;5.29;91.28;98325.50;6149105;23;20013;-69
2021/03/15 11:56:59;;;;;;;2.78;2.55;;;;;;;5.41;89.61;98317.75;6150189;23;20037;-69
2021/03/15 11:59:25;;;;;;;4.28;2.80;;;;;;;5.41;90.35;98312.63;6147604;23;20628;-69
2021/03/15 12:01:50;;;;;;;2.95;2.63;;;;;;;5.50;88.96;98326.25;6142688;23;20006;-69
2021/03/15 12:04:15;;;;;;;3.95;2.75;;;;;;;5.46;88.20;98319.41;6144467;23;20005;-69
2021/03/15 12:06:41;;;;;;;3.42;2.63;;;;;;;5.50;88.37;98323.69;6147405;23;20059;-69
2021/03/15 12:09:07;;;;;;;2.67;2.47;;;;;;;5.78;88.53;98330.38;6149282;23;20005;-69
2021/03/15 12:11:33;;;;;;;2.47;2.28;;;;;;;6.03;87.32;98332.81;6147227;23;20111;-69
2021/03/15 12:13:58;;;;;;;2.28;2.08;;;;;;;6.19;86.21;98339.59;6149457;23;20432;-69
2021/03/15 12:16:23;;;;;;;2.30;1.98;;;;;;;6.11;84.24;98334.47;6150706;23;20013;-69
2021/03/15 12:18:48;;;;;;;3.85;2.20;;;;;;;6.36;85.80;98342.00;6151496;23;20341;-69
2021/03/15 12:21:14;;;;;;;2.15;1.83;;;;;;;7.41;82.52;98325.47;6151563;23;20448;-70
2021/03/15 12:23:39;;;;;;;1.90;1.80;;;;;;;7.60;79.09;98330.38;6151108;23;20743;-70
2021/03/15 12:26:04;;;;;;;1.80;1.70;;;;;;;7.00;78.80;98332.81;6151080;23;20032;-70
2021/03/15 12:28:30;;;;;;;6.45;4.57;;;;;;;7.37;80.29;98336.69;6149840;23;20044;-70
2021/03/15 12:30:55;;;;;;;2.00;1.85;;;;;;;7.94;80.40;98326.44;6148039;23;20005;-70
2021/03/15 12:33:20;;;;;;;2.28;1.70;;;;;;;7.93;78.88;98332.50;6151608;23;20071;-70
2021/03/15 12:35:46;;;;;;;1.50;1.40;;;;;;;7.89;76.71;98336.00;6151393;23;20069;-69
2021/03/15 12:38:11;;;;;;;1.60;1.48;;;;;;;7.80;76.70;98340.44;6151780;23;20006;-69
2021/03/15 12:40:36;;;;;;;1.55;1.45;;;;;;;8.14;76.29;98335.63;6150288;23;20465;-69
2021/03/15 12:43:02;;;;;;;3.25;1.20;;;;;;;8.23;74.72;98348.38;6151238;23;20037;-70
2021/03/15 12:45:27;;;;;;;1.13;1.02;;;;;;;7.87;72.76;98353.19;6151477;23;20009;-70
2021/03/15 12:47:52;;;;;;;1.58;1.00;;;;;;;7.60;74.96;98349.28;6151376;23;20063;-70
2021/03/15 12:50:18;;;;;;;2.00;1.27;;;;;;;6.91;76.47;98367.22;6151156;23;20005;-70
2021/03/15 12:52:45;;;;;;;1.30;1.20;;;;;;;6.40;80.88;98359.97;6149458;23;20028;-70
2021/03/15 12:55:11;;;;;;;1.95;1.30;;;;;;;6.17;79.83;98367.03;6150514;23;20018;-74
2021/03/15 12:57:36;;;;;;;2.33;1.67;;;;;;;6.12;81.64;98381.63;6150671;23;20012;-74
2021/03/15 13:00:03;;;;;;;1.58;1.48;;;;;;;6.28;82.08;98384.94;6151055;23;20167;-73
2021/03/15 13:02:28;;;;;;;2.30;1.90;;;;;;;6.14;80.69;98380.78;6150152;23;20485;-73
2021/03/15 13:04:54;;;;;;;1.65;1.55;;;;;;;6.52;78.45;98378.75;6148667;23;20016;-69
2021/03/15 13:07:19;;;;;;;1.30;1.20;;;;;;;6.66;78.21;98387.22;6149145;23;20022;-69
2021/03/15 13:09:44;;;;;;;1.42;1.33;;;;;;;6.79;76.97;98388.81;6144345;23;20009;-69
2021/03/15 13:12:10;;;;;;;2.83;1.20;;;;;;;6.62;76.36;98393.25;6147902;23;20068;-69
2021/03/15 13:14:36;;;;;;;2.05;1.00;;;;;;;6.18;74.95;98399.59;6100191;23;20032;-69
2021/03/15 13:17:01;;;;;;;1.20;1.10;;;;;;;5.76;74.74;98403.25;6151420;23;20005;-69
2021/03/15 13:19:27;;;;;;;1.27;1.00;;;;;;;5.82;76.30;98401.50;6150327;23;20013;-69
2021/03/15 13:21:52;;;;;;;1.25;1.15;;;;;;;5.39;78.48;98404.22;6150416;23;20491;-69
2021/03/15 13:24:17;;;;;;;1.30;1.20;;;;;;;5.74;76.47;98400.66;6150711;23;19997;-69
2021/03/15 13:26:43;;;;;;;1.42;1.20;;;;;;;5.80;76.62;98398.09;6149323;23;20024;-69
2021/03/15 13:29:08;;;;;;;2.83;1.30;;;;;;;6.31;76.37;98406.38;6150263;23;20005;-69
2021/03/15 13:31:33;;;;;;;1.58;1.42;;;;;;;6.48;75.19;98402.81;6148851;23;20104;-69
2021/03/15 13:33:59;;;;;;;1.17;1.17;;;;;;;6.78;76.64;98407.72;6148149;23;20014;-69
2021/03/15 13:36:24;;;;;;;1.60;1.50;;;;;;;6.52;74.25;98414.78;6150600;23;20009;-70
2021/03/15 13:38:50;;;;;;;2.50;1.40;;;;;;;6.75;75.46;98412.88;6072527;23;20025;-70
2021/03/15 13:41:15;;;;;;;1.65;1.55;;;;;;;6.94;75.73;98419.56;6179499;23;20012;-70
2021/03/15 13:43:41;;;;;;;5.85;1.50;;;;;;;6.53;70.80;98426.81;6180214;23;20009;-70
2021/03/15 13:46:06;;;;;;;4.95;1.40;;;;;;;7.29;70.58;98426.09;6180409;23;20474;-70
2021/03/15 13:48:32;;;;;;;3.08;1.90;;;;;;;7.57;71.88;98415.50;6180288;23;20032;-70
2021/03/15 13:50:57;;;;;;;1.50;1.40;;;;;;;7.62;69.72;98422.28;6179693;23;20009;-70
2021/03/15 13:53:22;;;;;;;2.75;1.90;;;;;;;7.58;69.73;98422.34;6180026;23;20471;-70
2021/03/15 13:55:48;;;;;;;4.45;1.50;;;;;;;7.71;67.62;98418.75;6179906;23;20013;-70
2021/03/15 13:58:13;;;;;;;2.03;1.83;;;;;;;7.82;67.48;98413.44;6180552;23;20013;-70
2021/03/15 14:00:39;;;;;;;1.63;1.52;;;;;;;7.86;64.35;98403.06;6179067;23;20432;-69
2021/03/15 14:03:06;;;;;;;3.35;1.60;;;;;;;8.20;63.85;98408.63;6179736;23;20001;-69
2021/03/15 14:05:33;;;;;;;2.40;1.48;;;;;;;8.00;63.58;98402.91;6178091;23;20013;-69
2021/03/15 14:07:58;;;;;;;4.53;1.27;;;;;;;7.76;63.17;98401.50;6176243;23;20005;-69
2021/03/15 14:10:24;;;;;;;2.92;1.25;;;;;;;7.60;60.87;98405.16;6180462;23;20009;-69
2021/03/15 14:12:49;;;;;;;1.30;1.20;;;;;;;7.28;60.84;98403.78;6178475;23;20340;-69
2021/03/15 14:15:15;;;;;;;2.92;1.52;;;;;;;7.71;63.33;98411.00;6180015;23;20581;-69
2021/03/15 14:17:40;;;;;;;3.50;1.48;;;;;;;7.89;62.50;98400.47;6180214;23;20060;-69
2021/03/15 14:20:07;;;;;;;3.28;1.52;;;;;;;8.07;63.36;98399.34;6180633;23;20054;-69
2021/03/15 14:22:33;;;;;;;5.03;1.52;;;;;;;8.40;58.75;98400.63;6180068;23;20068;-69
2021/03/15 14:24:58;;;;;;;2.85;1.52;;;;;;;8.37;61.31;98399.81;6179529;23;20420;-69
2021/03/15 14:27:24;;;;;;;1.77;1.25;;;;;;;8.47;57.21;98402.25;6180358;23;20011;-69
2021/03/15 14:29:50;;;;;;;2.75;1.42;;;;;;;8.38;57.65;98407.53;6179996;23;20016;-69
2021/03/15 14:32:16;;;;;;;4.88;1.55;;;;;;;8.30;56.61;98398.16;6179779;23;20436;-69
2021/03/15 14:34:41;;;;;;;3.67;1.65;;;;;;;7.40;58.75;98406.22;6177781;23;20012;-69
2021/03/15 14:37:07;;;;;;;3.70;1.52;;;;;;;8.06;60.52;98400.22;6177052;23;20088;-69
2021/03/15 14:39:32;;;;;;;2.83;1.63;;;;;;;8.57;58.18;98402.09;6177770;23;20082;-69
2021/03/15 14:41:57;;;;;;;2.47;1.58;;;;;;;8.44;58.22;98407.44;6179954;23;20009;-69
2021/03/15 14:44:23;;;;;;;5.03;2.60;;;;;;;8.45;59.97;98416.03;6180331;23;20574;-69
2021/03/15 14:46:48;;;;;;;4.13;2.10;;;;;;;8.59;58.37;98415.81;6178792;23;20063;-69
2021/03/15 14:49:14;;;;;;;2.17;1.65;;;;;;;8.85;57.10;98408.50;6178986;23;20072;-70
2021/03/15 14:51:39;;;;;;;3.33;1.92;;;;;;;9.14;57.89;98414.91;6180168;23;20013;-70
2021/03/15 14:54:05;;;;;;;2.80;1.92;;;;;;;9.18;56.25;98411.34;6180047;23;20008;-70
2021/03/15 14:56:31;;;;;;;2.85;1.98;;;;;;;9.13;54.64;98418.34;6179787;23;20020;-70
2021/03/15 14:58:56;;;;;;;3.13;2.53;;;;;;;8.95;54.22;98420.41;6179151;23;20647;-70
2021/03/15 15:01:22;;;;;;;4.43;2.15;;;;;;;8.61;56.16;98429.59;6179391;23;20083;-69
2021/03/15 15:03:47;;;;;;;4.75;2.20;;;;;;;8.79;56.58;98429.25;6180419;23;20027;-70
2021/03/15 15:06:12;;;;;;;2.60;2.05;;;;;;;9.04;57.44;98424.53;6180090;23;20328;-69
2021/03/15 15:08:38;;;;;;;2.40;2.00;;;;;;;8.39;55.24;98429.03;6180276;23;20036;-69
2021/03/15 15:11:03;;;;;;;3.15;2.17;;;;;;;8.52;57.19;98419.41;6178179;23;20012;-69
2021/03/15 15:13:29;;;;;;;3.13;2.33;;;;;;;8.20;56.41;98429.28;6179832;23;20009;-69
2021/03/15 15:15:55;;;;;;;3.78;2.38;;;;;;;8.34;57.36;98426.50;6179988;23;20383;-69
2021/03/15 15:18:21;;;;;;;2.45;2.25;;;;;;;8.20;56.77;98429.28;6180064;23;20073;-69
2021/03/15 15:20:46;;;;;;;5.60;3.35;;;;;;;8.48;58.37;98434.91;6179743;23;20009;-69
2021/03/15 15:23:12;;;;;;;7.25;2.40;;;;;;;8.24;58.46;98430.09;6178441;23;20011;-69
2021/03/15 15:25:37;;;;;;;3.00;2.42;;;;;;;8.03;59.28;98430.41;6179555;23;20072;-69
2021/03/15 15:28:02;;;;;;;3.13;2.53;;;;;;;8.11;59.33;98438.88;6179767;23;20028;-69
2021/03/15 15:30:29;;;;;;;5.43;2.42;;;;;;;8.48;59.34;98442.66;6179774;23;20561;-69
2021/03/15 15:32:55;;;;;;;4.80;2.45;;;;;;;8.68;57.18;98441.50;6178828;23;20059;-69
2021/03/15 15:35:21;;;;;;;7.72;3.08;;;;;;;8.83;56.42;98441.25;6152477;23;20088;-69
2021/03/15 15:37:48;;;;;;;4.95;2.90;;;;;;;8.89;56.51;98448.91;6180057;23;20001;-69
2021/03/15 15:40:18;;;;;;;5.47;2.50;;;;;;;8.88;57.44;98449.78;6153483;23;20008;-70
2021/03/15 15:42:43;;;;;;;5.65;3.15;;;;;;;8.86;58.23;98446.38;6179609;23;20012;-70
2021/03/15 15:45:13;;;;;;;5.47;3.65;;;;;;;9.09;57.16;98448.59;6178886;23;20005;-69
2021/03/15 15:47:39;;;;;;;11.15;3.15;;;;;;;8.47;59.31;98456.47;6179322;23;20016;-69
2021/03/15 15:50:05;;;;;;;8.05;2.65;;;;;;;8.11;60.62;98464.66;6179490;23;20005;-69
2021/03/15 15:52:31;;;;;;;2.67;2.28;;;;;;;7.71;59.88;98466.03;6179380;23;19997;-69
2021/03/15 15:54:56;;;;;;;3.63;2.80;;;;;;;7.72;59.24;98474.59;6179444;23;20091;-69
2021/03/15 15:57:21;;;;;;;2.75;2.08;;;;;;;8.01;60.42;98475.97;6178836;23;20753;-70
2021/03/15 15:59:47;;;;;;;3.60;2.85;;;;;;;8.18;59.47;98474.06;6179568;23;20099;-70
2021/03/15 16:02:12;;;;;;;3.55;2.60;;;;;;;8.15;58.29;98484.41;6179454;23;20332;-70
2021/03/15 16:04:37;;;;;;;3.20;2.35;;;;;;;7.86;60.71;98487.34;6179211;23;20032;-69
2021/03/15 16:07:03;;;;;;;3.80;2.28;;;;;;;7.42;59.90;98499.84;6179345;23;20037;-69